createdAt,value
2023-04-18T02:10:26.098Z,76.94
2023-04-18T02:12:53.117Z,76.77
2023-04-18T03:17:24.575Z,75.63
2023-04-18T03:19:52.841Z,75.78
2023-04-18T03:22:23.918Z,75.23
2023-04-18T03:24:53.797Z,75.56
2023-04-18T05:17:56.665Z,74.72
2023-04-18T05:20:30.812Z,74.59
2023-04-18T05:22:57.347Z,74.40
2023-04-18T05:25:24.076Z,74.71
2023-04-18T05:27:50.462Z,74.32
2023-04-18T05:30:16.867Z,74.19
2023-04-18T05:32:43.350Z,74.48
2023-04-18T05:35:09.905Z,74.54
2023-04-18T05:37:36.286Z,74.35
2023-04-18T05:40:06.924Z,74.26
2023-04-18T05:42:33.302Z,73.67
2023-04-18T05:45:00.823Z,73.79
2023-04-18T05:47:27.274Z,74.07
2023-04-18T05:49:53.676Z,73.87
2023-04-18T05:52:20.186Z,73.53
2023-04-18T05:54:46.733Z,72.91
2023-04-18T05:57:13.249Z,73.42
2023-04-18T05:59:40.000Z,72.52
2023-04-18T06:02:06.530Z,73.04
2023-04-18T06:04:35.492Z,73.44
2023-04-18T06:07:02.013Z,72.23
2023-04-18T06:09:28.654Z,72.51
2023-04-18T06:11:55.177Z,71.96
2023-04-18T06:14:21.890Z,71.32
2023-04-18T06:16:48.413Z,69.66
2023-04-18T06:19:21.888Z,68.38
2023-04-18T06:21:48.731Z,67.19
2023-04-18T06:24:15.691Z,67.38
2023-04-18T06:26:42.666Z,66.25
2023-04-18T06:42:36.218Z,67.75
2023-04-18T06:45:03.142Z,66.45
2023-04-18T06:47:30.004Z,66.64
2023-04-18T06:49:56.405Z,66.89
2023-04-18T06:52:22.788Z,66.86
2023-04-18T06:54:49.370Z,66.39
2023-04-18T06:57:15.857Z,66.35
2023-04-18T06:59:42.214Z,66.27
2023-04-18T07:02:08.604Z,66.74
2023-04-18T07:04:34.982Z,67.55
2023-04-18T07:07:01.336Z,67.05
2023-04-18T07:09:27.674Z,66.71
2023-04-18T07:11:54.052Z,66.43
2023-04-18T07:14:20.389Z,66.99
2023-04-18T07:16:46.815Z,66.96
2023-04-18T07:19:13.272Z,66.17
2023-04-18T07:21:41.982Z,65.41
2023-04-18T07:24:08.329Z,64.97
2023-04-18T07:26:34.707Z,64.74
2023-04-18T07:29:01.191Z,65.02
2023-04-18T07:31:27.790Z,64.26
2023-04-18T07:33:54.321Z,64.36
2023-04-18T07:36:21.744Z,64.25
2023-04-18T10:04:37.125Z,54.77
2023-04-18T10:07:03.618Z,54.64
2023-04-18T10:09:33.815Z,55.19
2023-04-18T10:12:05.009Z,53.46
2023-04-18T10:14:32.100Z,54.46
2023-04-18T10:16:59.548Z,53.39
2023-04-18T10:19:26.080Z,53.77
2023-04-18T10:21:52.671Z,52.96
2023-04-18T10:24:19.459Z,52.14
2023-04-18T10:26:46.356Z,54.07
2023-04-18T10:29:13.295Z,55.39
2023-04-18T10:31:40.463Z,53.58
2023-04-18T10:34:07.001Z,52.43
2023-04-18T10:36:36.063Z,51.50
2023-04-18T10:39:02.474Z,52.12
2023-04-18T10:41:32.339Z,53.40
2023-04-18T10:43:58.983Z,52.89
2023-04-18T10:46:32.502Z,52.98
2023-04-18T10:49:00.182Z,52.57
2023-04-18T10:51:30.440Z,52.64
2023-04-18T10:53:56.871Z,53.14
2023-04-18T10:56:25.882Z,51.81
2023-04-18T10:59:10.782Z,52.93
2023-04-18T11:01:44.858Z,52.00
2023-04-18T11:04:12.370Z,51.58
2023-04-18T11:06:44.039Z,51.54
2023-04-18T11:09:10.513Z,50.03
2023-04-18T11:11:37.342Z,52.01
2023-04-18T11:14:03.876Z,51.41
2023-04-18T11:16:30.347Z,51.61
2023-04-18T11:18:57.128Z,49.84
2023-04-18T11:21:24.571Z,50.74
2023-04-18T11:23:52.290Z,51.54
2023-04-18T11:26:20.661Z,52.40
2023-04-18T11:28:47.526Z,52.48
2023-04-18T11:31:13.967Z,52.65
2023-04-18T11:33:43.395Z,51.51
2023-04-18T11:36:12.038Z,51.22
2023-04-18T11:38:39.553Z,52.35
2023-04-18T11:41:06.405Z,52.18
2023-04-18T11:43:33.916Z,50.42
2023-04-18T11:46:03.964Z,52.50
2023-04-18T11:48:30.468Z,51.50
2023-04-18T11:50:56.891Z,51.13
2023-04-18T11:53:24.195Z,52.33
2023-04-18T11:55:55.797Z,52.14
2023-04-18T11:58:25.472Z,50.88
2023-04-18T12:00:52.187Z,51.56
2023-04-18T12:03:21.491Z,52.36
2023-04-18T12:05:48.456Z,51.02
2023-04-18T14:31:21.836Z,48.18
2023-04-18T14:33:48.257Z,48.42
2023-04-18T14:36:14.867Z,48.22
2023-04-18T14:38:41.595Z,46.31
2023-04-18T14:41:08.070Z,47.23
2023-04-18T14:43:34.463Z,48.55
2023-04-18T14:46:01.018Z,49.26
2023-04-18T14:48:28.087Z,49.39
2023-04-18T14:50:54.432Z,49.17
2023-04-18T14:53:20.866Z,51.24
2023-04-18T14:55:47.417Z,51.05
2023-04-18T14:58:13.754Z,51.31
2023-04-18T15:00:40.115Z,50.19
2023-04-18T15:03:08.327Z,50.75
2023-04-18T15:05:36.950Z,51.04
2023-04-18T15:08:03.345Z,49.99
2023-04-18T15:10:29.695Z,49.80
2023-04-18T15:12:56.231Z,49.79
2023-04-18T15:15:22.671Z,50.66
2023-04-18T15:17:49.056Z,51.13
2023-04-18T15:20:15.407Z,50.66
2023-04-18T15:22:41.762Z,50.76
2023-04-18T15:25:08.519Z,50.23
2023-04-18T15:27:34.956Z,50.22
2023-04-18T15:30:01.350Z,49.64
2023-04-18T15:32:28.032Z,49.79
2023-04-18T15:34:54.534Z,49.50
2023-04-18T15:37:20.926Z,49.49
2023-04-18T15:39:47.336Z,49.66
2023-04-18T15:42:13.793Z,50.22
2023-04-18T15:44:40.195Z,48.81
2023-04-18T15:47:06.645Z,49.51
2023-04-18T15:49:34.430Z,48.82
2023-04-18T15:52:01.140Z,49.94
2023-04-18T15:54:27.768Z,49.14
2023-04-18T15:56:54.231Z,49.50
2023-04-18T15:59:20.629Z,49.62
2023-04-18T16:01:47.061Z,50.06
2023-04-18T16:04:15.458Z,50.08
2023-04-18T16:06:42.298Z,50.87
2023-04-18T16:09:08.962Z,50.83
2023-04-18T16:11:35.304Z,51.32
2023-04-18T16:14:02.063Z,50.99
2023-04-18T16:16:28.799Z,49.80
2023-04-18T16:18:55.234Z,51.50
2023-04-18T16:21:21.574Z,51.73
2023-04-18T16:23:48.017Z,51.93
2023-04-18T16:26:14.415Z,50.66
2023-04-18T16:28:40.798Z,50.79
2023-04-18T16:31:07.211Z,50.62
2023-04-18T16:33:33.681Z,50.09
2023-04-18T16:36:00.129Z,50.35
2023-04-18T16:38:26.477Z,50.94
2023-04-18T16:40:53.196Z,50.67
2023-04-18T16:43:19.587Z,50.20
2023-04-18T16:45:45.982Z,50.82
2023-04-18T16:48:12.468Z,50.62
2023-04-18T16:50:39.046Z,50.01
2023-04-18T16:53:06.190Z,50.76
2023-04-18T16:55:32.724Z,51.70
2023-04-18T16:57:59.386Z,51.04
2023-04-18T17:00:25.771Z,50.90
2023-04-18T17:02:52.150Z,50.85
2023-04-18T17:05:18.677Z,50.86
2023-04-18T17:07:45.112Z,50.84
2023-04-18T17:10:11.494Z,52.00
2023-04-18T17:12:37.852Z,50.93
2023-04-18T17:15:04.268Z,50.64
2023-04-18T17:17:30.765Z,51.38
2023-04-18T17:19:57.586Z,50.78
2023-04-18T17:22:23.980Z,51.17
2023-04-18T17:24:50.357Z,52.86
2023-04-18T17:27:16.694Z,52.69
2023-04-18T17:29:43.156Z,52.91
2023-04-18T17:32:09.591Z,52.63
2023-04-18T17:34:36.055Z,52.73
2023-04-18T17:37:02.518Z,52.37
2023-04-18T17:39:30.972Z,53.41
2023-04-18T17:41:57.458Z,53.19
2023-04-18T17:44:25.888Z,53.58
2023-04-18T17:46:52.311Z,54.69
2023-04-18T17:49:18.833Z,55.39
2023-04-18T17:51:45.477Z,54.92
2023-04-18T17:54:12.001Z,55.01
2023-04-18T17:56:39.425Z,55.32
2023-04-18T17:59:06.033Z,55.58
2023-04-18T18:01:32.836Z,55.94
2023-04-18T18:04:00.265Z,56.11
2023-04-18T18:06:26.817Z,55.52
2023-04-18T18:08:53.172Z,57.16
2023-04-18T18:11:19.544Z,57.23
2023-04-18T18:13:45.943Z,57.28
2023-04-18T18:16:12.324Z,57.84
2023-04-18T18:18:38.728Z,57.47
2023-04-18T18:21:05.380Z,57.56
2023-04-18T18:23:31.769Z,58.20
2023-04-18T18:25:58.402Z,57.94
2023-04-18T18:28:25.322Z,57.94
2023-04-18T18:30:51.831Z,58.07
2023-04-18T18:33:18.454Z,58.47
2023-04-18T18:35:47.123Z,58.72
2023-04-18T18:38:13.894Z,59.27
2023-04-18T18:40:40.495Z,58.73
2023-04-18T18:43:07.546Z,59.19
2023-04-18T18:45:34.396Z,59.40
2023-04-18T18:48:03.356Z,59.47
2023-04-18T18:50:29.807Z,59.31
2023-04-18T18:52:56.166Z,58.79
2023-04-18T18:55:22.542Z,59.36
2023-04-18T18:57:50.969Z,59.55
2023-04-18T19:00:17.652Z,60.04
2023-04-18T19:02:44.158Z,60.25
2023-04-18T19:05:10.928Z,61.48
2023-04-18T19:07:39.919Z,60.60
2023-04-18T19:10:09.779Z,60.12
2023-04-18T19:12:36.435Z,60.68
2023-04-18T19:15:03.829Z,60.81
2023-04-18T19:17:30.811Z,61.26
2023-04-18T19:19:57.304Z,61.60
2023-04-18T19:22:27.202Z,60.92
2023-04-18T19:24:53.594Z,61.17
2023-04-18T19:27:20.081Z,60.71
2023-04-18T19:29:50.776Z,61.32
2023-04-18T19:32:17.196Z,61.16
2023-04-18T19:34:43.576Z,61.58
2023-04-18T19:37:12.609Z,61.63
2023-04-18T19:39:39.518Z,62.12
2023-04-18T19:42:05.899Z,61.99
2023-04-18T19:44:32.373Z,62.13
2023-04-18T19:46:58.789Z,62.45
2023-04-18T19:49:25.236Z,63.51
2023-04-18T19:51:51.638Z,62.89
2023-04-18T19:54:19.699Z,62.67
2023-04-18T19:56:48.991Z,63.23
2023-04-18T19:59:15.789Z,63.35
2023-04-18T20:01:45.181Z,63.45
2023-04-18T20:04:12.410Z,63.68
2023-04-18T20:06:39.163Z,63.93
2023-04-18T20:09:05.554Z,65.45
2023-04-18T20:11:32.380Z,64.77
2023-04-18T20:13:59.274Z,64.53
2023-04-18T20:16:25.733Z,64.89
2023-04-18T20:18:54.292Z,64.52
2023-04-18T20:21:22.494Z,64.60
